Time;durP1;ratioP1;P1;durP2;ratioP2;P2;SDS_P1;SDS_P2;PMS_P1;PMS_P2;Temp;Humidity;BMP_temperature;BMP_pressure;BME280_temperature;BME280_humidity;BME280_pressure;Samples;Min_cycle;Max_cycle;Signal;HPM_P1;HPM_P2
2022/12/22 03:28:01;;;;;;;15.03;7.07;;;;;;;;;;4995999;28;20240;-53
2022/12/22 03:30:27;;;;;;;19.87;8.10;;;;;;;;;;5005551;28;20273;-53
2022/12/22 03:32:53;;;;;;;15.80;7.97;;;;;;;;;;5012023;28;20186;-53
2022/12/22 03:35:19;;;;;;;17.60;8.00;;;;;;;;;;5006107;28;20183;-53
2022/12/22 03:37:45;;;;;;;13.47;8.10;;;;;;;;;;5003620;28;20194;-56
2022/12/22 03:40:11;;;;;;;12.83;7.80;;;;;;;;;;5012864;28;20174;-54
2022/12/22 03:48:06;;;;;;;20.97;8.80;;;;;;;;;;4992729;28;20187;-52
2022/12/22 03:50:32;;;;;;;14.73;8.33;;;;;;;;;;4993808;28;20557;-53
2022/12/22 03:52:58;;;;;;;19.73;9.17;;;;;;;;;;5003421;28;20265;-52
2022/12/22 03:55:24;;;;;;;23.80;9.23;;;;;;;;;;4999765;28;20314;-53
2022/12/22 03:57:50;;;;;;;24.10;10.70;;;;;;;;;;5012280;28;20194;-52
2022/12/22 04:00:17;;;;;;;23.10;10.33;;;;;;;;;;5012216;28;20753;-53
2022/12/22 04:02:43;;;;;;;18.53;9.20;;;;;;;;;;5011554;28;20214;-54
2022/12/22 04:05:09;;;;;;;13.17;6.87;;;;;;;;;;5012351;28;20260;-53
2022/12/22 04:07:35;;;;;;;12.50;6.80;;;;;;;;;;5012080;28;20638;-54
2022/12/22 04:12:54;;;;;;;13.27;7.47;;;;;;;;;;5012735;28;20181;-55
2022/12/22 04:15:31;;;;;;;11.63;7.00;;;4.70;99.90;;;;;;5012259;28;20205;-54
2022/12/22 04:17:57;;;;;;;14.17;7.27;;;4.60;99.90;;;;;;5012384;28;20181;-53
2022/12/22 04:20:28;;;;;;;10.40;6.00;;;4.50;99.90;;;;;;5012465;28;20217;-53
2022/12/22 04:22:55;;;;;;;15.83;5.80;;;4.60;99.90;;;;;;5011444;28;20193;-53
2022/12/22 04:25:21;;;;;;;10.63;5.87;;;;;;;;;;5012032;28;20174;-53
2022/12/22 04:27:47;;;;;;;13.00;5.50;;;4.60;99.90;;;;;;5001636;28;20187;-52
2022/12/22 04:30:13;;;;;;;10.50;6.17;;;;;;;;;;5011983;28;20281;-52
2022/12/22 04:32:39;;;;;;;13.00;6.20;;;4.60;99.90;;;;;;5012292;28;20244;-52
2022/12/22 04:35:05;;;;;;;10.67;6.00;;;4.70;99.90;;;;;;5012040;28;20174;-52
2022/12/22 04:37:32;;;;;;;11.83;6.03;;;;;;;;;;5009108;28;20233;-52
2022/12/22 04:39:58;;;;;;;9.63;5.97;;;;;;;;;;4998297;28;20179;-52
2022/12/22 04:42:24;;;;;;;12.30;5.43;;;;;;;;;;5009770;28;20189;-53
2022/12/22 04:44:50;;;;;;;13.90;6.20;;;;;;;;;;5011706;28;20175;-52
2022/12/22 04:47:16;;;;;;;12.97;7.63;;;;;;;;;;5010386;28;20175;-53
2022/12/22 04:49:42;;;;;;;17.37;7.60;;;;;;;;;;5009595;28;20253;-52
2022/12/22 04:52:08;;;;;;;17.70;7.90;;;;;;;;;;4999358;28;20195;-52
2022/12/22 04:54:34;;;;;;;14.50;7.80;;;;;;;;;;5010887;28;20236;-54
2022/12/22 04:57:00;;;;;;;17.97;9.03;;;;;;;;;;5010615;28;20300;-53
2022/12/22 04:59:26;;;;;;;16.10;9.10;;;;;;;;;;5011612;28;20171;-51
2022/12/22 05:01:52;;;;;;;19.10;8.77;;;5.50;99.90;;;;;;5011102;28;20660;-51
2022/12/22 05:04:18;;;;;;;14.87;8.03;;;;;;;;;;5011726;28;20261;-53
2022/12/22 05:06:44;;;;;;;17.33;7.30;;;;;;;;;;4998630;28;20187;-51
2022/12/22 05:09:10;;;;;;;12.33;7.53;;;;;;;;;;5008027;28;20182;-51
2022/12/22 05:11:37;;;;;;;12.20;6.67;;;5.70;99.90;;;;;;5008438;28;20261;-51
2022/12/22 05:14:03;;;;;;;10.63;6.73;;;5.50;99.90;;;;;;5011455;28;20232;-51
2022/12/22 05:16:29;;;;;;;10.83;6.47;;;;;;;;;;5010746;28;20644;-51
2022/12/22 05:18:55;;;;;;;10.47;6.17;;;;;;;;;;5011262;28;20179;-51
2022/12/22 05:21:22;;;;;;;14.57;7.20;;;5.60;99.90;;;;;;5011059;28;20181;-51
2022/12/22 05:23:49;;;;;;;13.50;7.30;;;;;;;;;;5011220;28;20183;-51
2022/12/22 05:26:16;;;;;;;18.63;7.40;;;;;;;;;;5005648;28;20198;-50
2022/12/22 05:28:45;;;;;;;15.53;7.10;;;6.00;99.90;;;;;;5011307;28;20171;-50
2022/12/22 05:31:15;;;;;;;15.57;8.17;;;5.80;99.90;;;;;;5009685;28;20182;-50
2022/12/22 05:33:41;;;;;;;12.13;7.23;;;6.00;99.90;;;;;;5010757;28;20242;-51
2022/12/22 05:36:07;;;;;;;14.87;7.93;;;;;;;;;;5010520;28;20703;-51
2022/12/22 05:38:33;;;;;;;18.60;8.37;;;;;;;;;;4997025;28;20183;-51
2022/12/22 05:40:59;;;;;;;20.77;8.53;;;;;;;;;;4999024;28;20174;-51
2022/12/22 05:43:25;;;;;;;15.47;7.73;;;;;;;;;;5003679;28;20256;-52
2022/12/22 05:45:52;;;;;;;15.20;8.03;;;6.20;99.90;;;;;;5011093;28;20586;-51
2022/12/22 05:48:18;;;;;;;10.97;7.37;;;;;;;;;;5009614;28;20222;-52
2022/12/22 05:50:45;;;;;;;12.87;7.63;;;6.00;99.90;;;;;;4999237;28;20206;-53
2022/12/22 05:53:12;;;;;;;16.53;8.20;;;6.10;99.90;;;;;;5010851;28;20173;-52
2022/12/22 05:55:38;;;;;;;17.83;8.40;;;;;;;;;;5011156;28;20241;-53
2022/12/22 05:58:03;;;;;;;23.83;9.03;;;6.10;99.90;;;;;;5010916;28;20659;-51
2022/12/22 06:00:30;;;;;;;15.30;8.70;;;6.50;99.90;;;;;;5010872;28;20179;-54
2022/12/22 06:02:56;;;;;;;16.37;8.50;;;;;;;;;;5010276;28;20217;-52
2022/12/22 06:05:22;;;;;;;14.93;8.43;;;;;;;;;;5010590;28;20210;-53
2022/12/22 06:07:48;;;;;;;15.23;8.60;;;;;;;;;;5010437;28;20175;-54
2022/12/22 06:10:15;;;;;;;16.87;8.83;;;;;;;;;;5010752;28;20179;-51
2022/12/22 06:12:41;;;;;;;19.90;9.23;;;;;;;;;;5010937;28;20179;-51
2022/12/22 06:15:09;;;;;;;57.73;10.03;;;;;;;;;;5010821;28;20178;-52
2022/12/22 06:17:35;;;;;;;17.80;9.37;;;;;;;;;;5010744;28;20614;-53
2022/12/22 06:20:01;;;;;;;17.93;8.90;;;;;;;;;;5011029;28;20528;-54
2022/12/22 06:22:27;;;;;;;20.97;9.80;;;;;;;;;;5010748;28;20175;-55
2022/12/22 06:24:53;;;;;;;19.57;9.37;;;6.90;99.90;;;;;;5010893;28;20170;-53
2022/12/22 06:27:18;;;;;;;18.43;8.83;;;7.10;99.90;;;;;;5010625;28;20661;-52
2022/12/22 06:29:44;;;;;;;16.73;9.23;;;;;;;;;;5010791;28;20213;-52
2022/12/22 06:32:10;;;;;;;20.13;10.20;;;;;;;;;;5010735;28;20222;-53
2022/12/22 06:34:36;;;;;;;90.77;12.03;;;;;;;;;;5010699;28;20233;-51
2022/12/22 06:37:02;;;;;;;19.10;9.30;;;;;;;;;;5010576;28;20333;-52
2022/12/22 06:39:28;;;;;;;16.07;8.77;;;7.50;99.90;;;;;;5010648;28;20175;-52
2022/12/22 06:44:39;;;;;;;14.00;7.37;;;;;;;;;;5010656;28;20185;-52
2022/12/22 06:47:05;;;;;;;17.13;8.97;;;;;;;;;;5000694;28;20199;-51
2022/12/22 06:49:31;;;;;;;15.40;7.80;;;;;;;;;;5002856;28;20264;-53
2022/12/22 06:51:58;;;;;;;15.30;8.13;;;;;;;;;;5013831;28;20705;-53
2022/12/22 06:54:24;;;;;;;21.73;8.40;;;;;;;;;;5013905;28;20198;-50
2022/12/22 06:56:50;;;;;;;16.50;8.83;;;;;;;;;;5003834;28;20226;-52
2022/12/22 06:59:16;;;;;;;75.73;9.77;;;;;;;;;;5011373;28;20209;-50
2022/12/22 07:01:42;;;;;;;17.60;8.70;;;;;;;;;;5013201;28;20186;-50
2022/12/22 07:04:08;;;;;;;14.97;8.20;;;8.00;99.90;;;;;;5013706;28;20182;-51
2022/12/22 07:06:35;;;;;;;9.30;6.17;;;;;;;;;;5013799;28;20174;-50
2022/12/22 07:09:01;;;;;;;15.27;7.60;;;;;;;;;;5013304;28;20198;-51
2022/12/22 07:11:27;;;;;;;10.20;5.63;;;;;;;;;;5013251;28;20198;-50
2022/12/22 07:13:54;;;;;;;13.13;6.30;;;8.70;99.90;;;;;;5012324;28;20186;-51
2022/12/22 07:16:20;;;;;;;9.37;4.90;;;;;;;;;;5001673;28;20211;-50
2022/12/22 07:18:45;;;;;;;12.30;5.60;;;8.60;99.90;;;;;;4997649;28;20618;-50
2022/12/22 07:21:12;;;;;;;10.90;5.73;;;8.40;99.90;;;;;;5002480;28;20202;-51
2022/12/22 07:23:39;;;;;;;36.37;6.67;;;8.70;99.90;;;;;;5007306;28;20189;-57
2022/12/22 07:26:06;;;;;;;10.23;5.77;;;8.60;99.90;;;;;;5018992;28;20209;-53
2022/12/22 07:28:34;;;;;;;9.57;5.20;;;10.40;99.90;;;;;;5010927;28;20183;-50
2022/12/22 07:31:00;;;;;;;10.93;5.50;;;;;;;;;;5013174;28;20166;-51
2022/12/22 07:33:26;;;;;;;13.77;6.20;;;;;;;;;;5013336;28;20645;-51
2022/12/22 07:36:12;;;;;;;16.20;5.27;;;8.80;99.90;;;;;;5013009;28;20198;-51
2022/12/22 07:38:41;;;;;;;424.60;19.97;;;8.70;99.90;;;;;;5012111;28;20187;-54
2022/12/22 07:43:54;;;;;;;11.53;6.80;;;8.60;99.90;;;;;;4996911;28;20189;-55
2022/12/22 07:46:20;;;;;;;10.70;6.47;;;;;;;;;;5010513;28;20177;-55
2022/12/22 07:51:34;;;;;;;34.13;7.73;;;8.60;99.90;;;;;;5002221;28;20189;-54
2022/12/22 07:54:00;;;;;;;16.40;7.27;;;8.40;99.90;;;;;;5012896;28;20206;-54
2022/12/22 07:56:26;;;;;;;70.47;8.93;;;8.60;99.90;;;;;;5012599;28;20242;-55
2022/12/22 07:58:52;;;;;;;16.70;7.90;;;;;;;;;;5012807;28;20535;-55
2022/12/22 08:01:18;;;;;;;14.93;7.67;;;;;;;;;;5012619;28;20179;-55
2022/12/22 08:03:44;;;;;;;19.80;9.77;;;;;;;;;;5010594;28;20186;-55
2022/12/22 08:06:10;;;;;;;15.43;8.73;;;8.40;99.90;;;;;;5002304;28;20174;-55
2022/12/22 08:08:36;;;;;;;21.63;9.77;;;;;;;;;;5012535;28;20651;-55
2022/12/22 08:11:02;;;;;;;18.87;9.90;;;;;;;;;;4996659;28;20179;-55
2022/12/22 08:13:28;;;;;;;22.13;10.63;;;;;;;;;;4992997;28;20179;-55
2022/12/22 08:15:54;;;;;;;17.10;10.53;;;;;;;;;;4992838;28;20700;-54
2022/12/22 08:18:20;;;;;;;30.30;13.60;;;;;;;;;;4992850;28;20872;-54
2022/12/22 08:20:50;;;;;;;18.03;10.87;;;8.40;99.90;;;;;;4992826;28;20175;-54
2022/12/22 08:23:16;;;;;;;174.07;13.83;;;;;;;;;;4992609;28;20175;-54
2022/12/22 08:25:42;;;;;;;19.17;9.77;;;8.70;99.90;;;;;;4992773;28;20256;-54
2022/12/22 08:28:08;;;;;;;15.57;8.63;;;8.90;99.90;;;;;;4992579;28;20266;-54
2022/12/22 08:30:34;;;;;;;18.67;9.93;;;8.90;99.90;;;;;;4992711;28;20314;-54
2022/12/22 08:33:00;;;;;;;14.30;7.27;;;9.00;99.90;;;;;;4992486;28;20528;-54
2022/12/22 08:35:26;;;;;;;13.67;6.13;;;8.80;99.90;;;;;;4992389;28;21346;-54
2022/12/22 08:37:52;;;;;;;14.97;4.10;;;9.20;99.90;;;;;;4992315;28;20207;-53
2022/12/22 08:40:26;;;;;;;16.93;4.50;;;9.30;99.90;;;;;;5008275;28;20177;-54
2022/12/22 08:42:57;;;;;;;15.20;5.63;;;9.30;99.90;;;;;;5006819;28;20178;-53
2022/12/22 08:45:24;;;;;;;9.63;3.90;;;;;;;;;;4992369;28;20183;-54
2022/12/22 08:47:50;;;;;;;13.13;3.93;;;;;;;;;;4992391;28;20270;-55
2022/12/22 08:50:16;;;;;;;11.33;4.67;;;;;;;;;;5000133;28;20222;-54
2022/12/22 08:52:42;;;;;;;14.40;3.30;;;9.50;99.90;;;;;;5004020;28;20198;-53
2022/12/22 08:55:08;;;;;;;23.40;5.63;;;;;;;;;;5011782;28;20197;-51
2022/12/22 08:57:34;;;;;;;19.33;4.93;;;;;;;;;;5004096;28;20223;-51
2022/12/22 09:00:00;;;;;;;18.97;4.80;;;;;;;;;;4991983;28;20262;-50
2022/12/22 09:02:26;;;;;;;14.57;3.70;;;9.90;99.90;;;;;;4992040;28;20638;-51
2022/12/22 09:04:52;;;;;;;9.83;4.07;;;;;;;;;;4991988;28;20195;-50
2022/12/22 09:07:19;;;;;;;15.53;3.60;;;;;;;;;;4992184;28;20202;-52
2022/12/22 09:09:45;;;;;;;17.07;4.40;;;10.20;99.90;;;;;;4991530;28;20195;-51
2022/12/22 09:12:11;;;;;;;23.47;3.97;;;9.90;99.90;;;;;;5001871;28;20633;-51
2022/12/22 09:14:37;;;;;;;10.50;2.90;;;;;;;;;;4998386;28;20191;-52
2022/12/22 09:17:03;;;;;;;13.63;3.13;;;10.10;99.90;;;;;;4991878;28;20222;-54
2022/12/22 09:19:29;;;;;;;17.77;3.10;;;;;;;;;;4991727;28;20171;-52
2022/12/22 09:21:55;;;;;;;10.37;2.77;;;;;;;;;;4995772;28;20225;-51
2022/12/22 09:24:21;;;;;;;13.73;3.47;;;;;;;;;;5008648;28;20560;-55
2022/12/22 09:26:47;;;;;;;14.07;3.23;;;;;;;;;;5010122;28;20182;-52
2022/12/22 09:29:14;;;;;;;14.57;2.93;;;;;;;;;;5011426;28;20174;-52
2022/12/22 09:31:40;;;;;;;12.00;2.17;;;10.20;99.90;;;;;;5011383;28;20182;-52
2022/12/22 09:34:06;;;;;;;10.23;2.30;;;10.20;99.90;;;;;;5011359;28;20270;-52
2022/12/22 09:36:32;;;;;;;11.97;2.70;;;;;;;;;;5011309;28;20241;-52
2022/12/22 09:38:59;;;;;;;9.27;2.77;;;;;;;;;;5010898;28;20190;-51
2022/12/22 09:41:52;;;;;;;11.73;2.57;;;9.90;99.90;;;;;;5011168;28;20669;-52
2022/12/22 09:44:25;;;;;;;10.47;2.00;;;10.40;99.90;;;;;;5010459;28;20188;-54
2022/12/22 09:46:54;;;;;;;10.57;1.80;;;10.50;99.90;;;;;;5004128;28;20178;-57
2022/12/22 09:49:21;;;;;;;7.87;1.90;;;10.50;99.90;;;;;;5008469;28;20214;-55
2022/12/22 09:51:53;;;;;;;8.47;1.57;;;10.60;99.90;;;;;;5010849;28;20186;-55
2022/12/22 09:54:19;;;;;;;10.93;1.83;;;10.60;99.90;;;;;;5008340;28;20202;-55
2022/12/22 09:56:45;;;;;;;12.30;1.90;;;10.50;99.90;;;;;;5010410;28;20222;-55
2022/12/22 09:59:14;;;;;;;6.80;1.47;;;10.80;99.90;;;;;;5011178;28;20629;-54
2022/12/22 10:01:54;;;;;;;14.13;1.67;;;10.50;99.90;;;;;;5011195;28;20249;-54
2022/12/22 10:04:37;;;;;;;14.87;2.20;;;10.80;99.90;;;;;;5007195;28;20186;-55
2022/12/22 10:07:23;;;;;;;14.10;1.60;;;10.80;99.90;;;;;;4991303;28;20171;-54
2022/12/22 10:09:49;;;;;;;15.40;2.20;;;;;;;;;;4991234;28;20171;-54
2022/12/22 10:12:21;;;;;;;18.73;2.80;;;10.90;99.90;;;;;;4991273;28;20725;-54
2022/12/22 10:14:49;;;;;;;25.57;2.73;;;11.00;99.90;;;;;;4991273;28;20213;-54
2022/12/22 10:17:30;;;;;;;14.13;2.00;;;10.70;99.90;;;;;;4991228;28;20241;-55
2022/12/22 10:20:26;;;;;;;12.87;2.17;;;11.00;99.90;;;;;;4991068;28;20179;-55
2022/12/22 10:23:05;;;;;;;15.57;2.40;;;10.90;99.90;;;;;;4994500;28;20191;-55
2022/12/22 10:25:37;;;;;;;18.90;2.77;;;11.00;99.90;;;;;;5004237;28;20281;-54
2022/12/22 10:28:07;;;;;;;14.80;2.30;;;11.10;99.90;;;;;;5004052;28;20187;-54
2022/12/22 10:30:36;;;;;;;15.67;2.20;;;11.00;99.90;;;;;;4994794;28;20214;-55
2022/12/22 10:33:02;;;;;;;14.70;2.70;;;;;;;;;;5011651;28;20261;-55
2022/12/22 10:35:41;;;;;;;19.30;2.50;;;11.30;99.90;;;;;;5012910;28;20566;-54
2022/12/22 10:38:27;;;;;;;16.00;2.63;;;11.30;99.90;;;;;;5014296;28;20277;-54
2022/12/22 10:41:19;;;;;;;15.60;2.23;;;;;;;;;;5013735;28;20179;-52
2022/12/22 10:43:52;;;;;;;11.67;2.40;;;11.20;99.90;;;;;;5007287;28;20273;-53
2022/12/22 10:46:27;;;;;;;12.83;2.50;;;11.20;99.90;;;;;;5012614;28;20646;-52
2022/12/22 10:48:53;;;;;;;20.07;3.00;;;;;;;;;;5002817;28;20226;-50
2022/12/22 10:51:24;;;;;;;13.10;2.10;;;11.40;99.90;;;;;;5010164;28;20179;-51
2022/12/22 10:53:54;;;;;;;10.43;2.17;;;11.40;99.90;;;;;;5013998;28;20187;-50
2022/12/22 10:56:29;;;;;;;13.43;1.70;;;11.30;99.90;;;;;;5013537;28;20198;-52
2022/12/22 10:58:55;;;;;;;9.30;1.60;;;;;;;;;;5013963;28;20226;-50
2022/12/22 11:01:30;;;;;;;14.43;1.83;;;11.40;99.90;;;;;;5013712;28;20249;-51
2022/12/22 11:03:57;;;;;;;7.37;1.37;;;11.30;99.90;;;;;;5013792;28;20170;-50
2022/12/22 11:06:23;;;;;;;8.00;1.73;;;10.90;99.90;;;;;;5013832;28;20228;-50
2022/12/22 11:08:49;;;;;;;14.53;1.87;;;11.40;99.90;;;;;;5013853;28;20171;-51
2022/12/22 11:11:44;;;;;;;13.50;1.57;;;11.30;99.90;;;;;;5013439;28;20557;-52
2022/12/22 11:14:25;;;;;;;9.17;1.53;;;11.30;99.90;;;;;;5019854;28;20728;-50
2022/12/22 11:17:09;;;;;;;13.07;1.60;;;11.40;99.90;;;;;;5011060;28;20293;-50
2022/12/22 11:19:42;;;;;;;13.27;1.47;;;9.50;99.90;;;;;;4999004;28;20182;-53
2022/12/22 11:22:25;;;;;;;9.27;1.90;;;11.50;99.90;;;;;;5010260;28;20645;-54
2022/12/22 11:25:22;;;;;;;11.13;1.70;;;11.30;99.90;;;;;;5009504;28;20201;-51
2022/12/22 11:28:09;;;;;;;10.83;1.50;;;11.70;99.90;;;;;;5008398;28;20201;-49
2022/12/22 11:30:52;;;;;;;10.03;1.80;;;11.40;99.90;;;;;;4996785;28;20206;-50
2022/12/22 11:33:19;;;;;;;4.73;1.33;;;;;;;;;;4993234;28;20662;-50
2022/12/22 11:35:45;;;;;;;6.83;1.10;;;;;;;;;;5002545;28;20178;-52
2022/12/22 11:38:11;;;;;;;6.53;1.47;;;;;;;;;;5008493;28;20206;-49
2022/12/22 11:40:48;;;;;;;7.37;1.30;;;11.70;99.90;;;;;;5013113;28;20700;-53
2022/12/22 11:43:39;;;;;;;10.10;1.43;;;11.70;99.90;;;;;;5012804;28;20174;-51
2022/12/22 11:46:05;;;;;;;8.80;1.07;;;;;;;;;;5012311;28;20179;-50
2022/12/22 11:49:05;;;;;;;4.30;0.87;;;11.40;99.90;;;;;;5010915;28;20222;-54
2022/12/22 11:51:36;;;;;;;7.27;1.40;;;11.50;99.90;;;;;;5010911;28;20167;-51
2022/12/22 11:54:17;;;;;;;4.43;1.10;;;11.70;99.90;;;;;;5011051;28;20220;-51
2022/12/22 11:56:50;;;;;;;5.10;1.27;;;;;;;;;;5010798;28;20214;-50
2022/12/22 11:59:40;;;;;;;7.93;1.30;;;11.90;99.90;;;;;;5010611;28;20701;-52
2022/12/22 12:02:36;;;;;;;8.73;1.77;;;11.70;99.90;;;;;;5011985;28;20249;-54
2022/12/22 12:05:16;;;;;;;5.90;1.03;;;11.60;99.90;;;;;;5012858;28;20170;-51
2022/12/22 12:07:50;;;;;;;7.17;1.40;;;11.70;99.90;;;;;;5012604;28;20182;-51
2022/12/22 12:10:43;;;;;;;5.03;1.20;;;11.60;99.90;;;;;;5011133;28;20170;-51
2022/12/22 12:13:27;;;;;;;6.63;1.33;;;11.90;99.90;;;;;;5011981;28;20186;-51
2022/12/22 12:16:22;;;;;;;4.50;1.13;;;11.60;99.90;;;;;;5012397;28;20205;-53
2022/12/22 12:19:06;;;;;;;5.63;1.70;;;12.70;99.90;;;;;;5011166;28;20651;-50
2022/12/22 12:21:53;;;;;;;5.50;0.97;;;11.60;99.90;;;;;;5012226;28;20178;-52
2022/12/22 12:24:39;;;;;;;2.83;0.80;;;11.60;99.90;;;;;;5012143;28;20225;-50
2022/12/22 12:27:35;;;;;;;3.07;0.73;;;11.70;99.90;;;;;;5012226;28;20209;-50
2022/12/22 12:30:07;;;;;;;3.10;0.70;;;11.60;99.90;;;;;;5012280;28;20167;-50
2022/12/22 12:32:48;;;;;;;3.60;1.10;;;11.70;99.90;;;;;;5012198;28;20224;-50
2022/12/22 12:35:30;;;;;;;2.73;0.83;;;11.80;99.90;;;;;;5011993;28;20177;-50
2022/12/22 12:38:00;;;;;;;6.53;1.20;;;;;;;;;;5012141;28;20210;-52
2022/12/22 12:40:47;;;;;;;3.13;0.63;;;11.80;99.90;;;;;;5012114;28;20258;-51
2022/12/22 12:43:13;;;;;;;5.60;1.10;;;;;;;;;;5011276;28;20204;-56
2022/12/22 12:45:42;;;;;;;3.57;0.70;;;11.80;99.90;;;;;;5011858;28;20171;-51
2022/12/22 12:48:23;;;;;;;5.53;1.30;;;11.80;99.90;;;;;;5011569;28;20193;-53
2022/12/22 12:50:49;;;;;;;7.80;1.30;;;;;;;;;;5011919;28;20262;-51
2022/12/22 12:53:15;;;;;;;8.73;1.33;;;;;;;;;;5011723;28;20259;-50
2022/12/22 12:55:53;;;;;;;6.70;1.20;;;11.80;99.90;;;;;;5011597;28;20265;-50
2022/12/22 12:58:37;;;;;;;7.60;1.40;;;11.70;99.90;;;;;;5011647;28;20756;-50
2022/12/22 13:01:04;;;;;;;4.70;1.27;;;11.70;99.90;;;;;;5011881;28;20171;-53
2022/12/22 13:03:30;;;;;;;5.10;1.13;;;;;;;;;;5011589;28;20698;-50
2022/12/22 13:06:04;;;;;;;8.53;0.80;;;11.70;99.90;;;;;;5011513;28;20189;-50
2022/12/22 13:08:32;;;;;;;4.37;1.10;;;11.80;99.90;;;;;;5011391;28;20664;-50
2022/12/22 13:10:57;;;;;;;7.37;1.23;;;;;;;;;;5011516;28;20183;-50
2022/12/22 13:13:23;;;;;;;11.33;1.40;;;;;;;;;;5011620;28;20173;-50
2022/12/22 13:16:09;;;;;;;7.20;1.30;;;11.80;99.90;;;;;;5011279;28;20604;-50
2022/12/22 13:18:45;;;;;;;6.33;1.20;;;11.90;99.90;;;;;;5011350;28;20206;-50
2022/12/22 13:21:20;;;;;;;5.43;1.33;;;11.60;99.90;;;;;;5011371;28;20170;-50
2022/12/22 13:23:55;;;;;;;9.00;1.67;;;12.00;99.90;;;;;;5011245;28;20178;-50
2022/12/22 13:26:36;;;;;;;6.07;1.40;;;11.90;99.90;;;;;;5011230;28;20200;-52
2022/12/22 13:29:02;;;;;;;6.50;1.10;;;;;;;;;;5011372;28;20261;-50
2022/12/22 13:31:28;;;;;;;10.57;1.53;;;;;;;;;;5011293;28;20170;-51
2022/12/22 13:34:03;;;;;;;4.97;0.90;;;11.80;99.90;;;;;;5010987;28;20195;-50
2022/12/22 13:36:30;;;;;;;7.20;1.30;;;11.80;99.90;;;;;;5011021;28;20205;-50
2022/12/22 13:39:01;;;;;;;7.17;1.10;;;11.70;99.90;;;;;;5011228;28;20206;-50
2022/12/22 13:41:27;;;;;;;3.77;0.90;;;10.90;99.90;;;;;;5008831;28;20220;-50
2022/12/22 13:43:57;;;;;;;3.93;0.70;;;11.80;99.90;;;;;;5001095;28;20171;-51
2022/12/22 13:46:24;;;;;;;7.47;1.07;;;11.70;99.90;;;;;;5010991;28;20182;-50
2022/12/22 13:48:51;;;;;;;1.93;1.10;;;;;;;;;;4994087;28;20234;-50
2022/12/22 13:51:21;;;;;;;2.67;0.70;;;11.70;99.90;;;;;;4991304;28;20568;-50
2022/12/22 13:53:56;;;;;;;2.73;0.63;;;11.70;99.90;;;;;;4991554;28;20209;-50
2022/12/22 13:56:24;;;;;;;3.17;0.53;;;;;;;;;;4995003;28;20214;-50
2022/12/22 13:58:57;;;;;;;2.37;0.57;;;11.50;99.90;;;;;;4995499;28;20605;-51
2022/12/22 14:01:23;;;;;;;3.47;0.60;;;11.50;99.90;;;;;;4995454;28;20206;-50
2022/12/22 14:04:01;;;;;;;3.80;0.63;;;11.60;99.90;;;;;;4995460;28;20226;-50
2022/12/22 14:06:27;;;;;;;5.27;0.70;;;;;;;;;;4995272;28;20178;-50
2022/12/22 14:09:08;;;;;;;3.57;0.77;;;11.60;99.90;;;;;;4995253;28;20220;-51
2022/12/22 14:11:33;;;;;;;2.37;0.90;;;11.70;99.90;;;;;;4995395;28;20298;-51
2022/12/22 14:13:59;;;;;;;5.70;0.90;;;;;;;;;;4995245;28;20649;-51
2022/12/22 14:16:25;;;;;;;3.27;0.80;;;;;;;;;;4995092;28;20195;-51
2022/12/22 14:18:52;;;;;;;4.50;0.83;;;11.40;99.90;;;;;;4995186;28;20175;-51
2022/12/22 14:21:18;;;;;;;6.47;1.03;;;;;;;;;;4995138;28;20226;-50
2022/12/22 14:23:45;;;;;;;4.33;0.90;;;9.90;99.90;;;;;;4995097;28;20336;-51
2022/12/22 14:26:21;;;;;;;6.87;1.00;;;11.20;99.90;;;;;;4995292;28;20199;-52
2022/12/22 14:28:52;;;;;;;4.10;0.77;;;11.40;99.90;;;;;;4995046;28;20179;-51
2022/12/22 14:31:18;;;;;;;5.97;0.87;;;;;;;;;;4994245;28;20179;-51
2022/12/22 14:33:56;;;;;;;7.83;1.07;;;11.50;99.90;;;;;;4988393;28;20199;-50
2022/12/22 14:36:26;;;;;;;4.67;0.80;;;11.50;99.90;;;;;;4994644;28;20272;-50
2022/12/22 14:38:57;;;;;;;6.77;0.70;;;11.60;99.90;;;;;;4994663;28;20214;-50
2022/12/22 14:41:41;;;;;;;8.33;1.03;;;;;;;;;;4994914;28;20207;-50
2022/12/22 14:44:27;;;;;;;3.73;0.63;;;11.60;99.90;;;;;;4994549;28;20178;-50
2022/12/22 14:47:10;;;;;;;4.87;0.80;;;11.40;99.90;;;;;;4994536;28;20171;-50
2022/12/22 14:49:57;;;;;;;5.83;0.80;;;11.40;99.90;;;;;;4994399;28;20219;-51
2022/12/22 14:52:51;;;;;;;3.30;0.60;;;11.40;99.90;;;;;;4994620;28;20175;-51
2022/12/22 14:55:38;;;;;;;7.73;0.90;;;11.40;99.90;;;;;;4994571;28;20175;-51
2022/12/22 14:58:04;;;;;;;10.20;0.93;;;;;;;;;;4994635;28;20191;-52
2022/12/22 15:00:40;;;;;;;5.20;1.00;;;11.30;99.90;;;;;;4994539;28;20175;-53
2022/12/22 15:03:28;;;;;;;6.77;1.47;;;11.50;99.90;;;;;;4994623;28;20257;-50
2022/12/22 15:05:54;;;;;;;12.00;1.53;;;;;;;;;;4993884;28;20313;-52
2022/12/22 15:08:37;;;;;;;9.97;1.47;;;11.40;99.90;;;;;;4993932;28;20183;-51
2022/12/22 15:11:07;;;;;;;8.13;1.07;;;11.30;99.90;;;;;;5005516;28;20178;-51
2022/12/22 15:13:33;;;;;;;9.57;1.50;;;;;;;;;;4997090;28;20278;-51
2022/12/22 15:15:59;;;;;;;7.67;1.17;;;;;;;;;;5012237;28;20210;-51
2022/12/22 15:18:26;;;;;;;9.03;1.40;;;11.20;99.90;;;;;;4997212;28;20187;-51
2022/12/22 15:20:54;;;;;;;16.20;2.10;;;11.20;99.90;;;;;;4992344;28;20167;-51
2022/12/22 15:23:20;;;;;;;13.33;1.77;;;;;;;;;;4995309;28;20179;-51
2022/12/22 15:25:46;;;;;;;20.30;1.60;;;;;;;;;;5011090;28;20195;-51
2022/12/22 15:28:12;;;;;;;11.40;1.80;;;;;;;;;;5013480;28;20197;-51
2022/12/22 15:30:38;;;;;;;13.20;2.30;;;11.20;99.90;;;;;;5012032;28;20193;-50
2022/12/22 15:33:08;;;;;;;10.27;1.70;;;10.90;99.90;;;;;;5013533;28;20167;-49
2022/12/22 15:35:34;;;;;;;18.50;2.50;;;11.40;99.90;;;;;;5013265;28;20173;-50
2022/12/22 15:38:00;;;;;;;18.60;2.67;;;11.20;99.90;;;;;;5012948;28;20214;-50
2022/12/22 15:40:27;;;;;;;16.67;1.80;;;11.10;99.90;;;;;;5013278;28;20171;-52
2022/12/22 15:42:54;;;;;;;13.07;1.60;;;;;;;;;;5013134;28;20253;-50
2022/12/22 15:45:21;;;;;;;10.57;1.47;;;11.50;99.90;;;;;;5013259;28;20225;-49
2022/12/22 15:47:50;;;;;;;10.97;1.70;;;10.80;99.90;;;;;;5013126;28;20213;-49
2022/12/22 15:50:24;;;;;;;12.70;1.60;;;10.30;99.90;;;;;;5012542;28;20245;-50
2022/12/22 15:52:52;;;;;;;15.07;2.13;;;11.10;99.90;;;;;;5013012;28;20212;-51
2022/12/22 15:55:19;;;;;;;17.13;2.23;;;11.00;99.90;;;;;;5012887;28;20237;-50
2022/12/22 15:57:49;;;;;;;18.30;2.27;;;11.20;99.90;;;;;;5013047;28;20220;-50
2022/12/22 16:00:15;;;;;;;13.40;1.40;;;10.90;99.90;;;;;;5013011;28;20171;-50
2022/12/22 16:02:40;;;;;;;14.63;1.57;;;11.00;99.90;;;;;;5012475;28;20179;-51
2022/12/22 16:05:07;;;;;;;8.03;1.80;;;10.70;99.90;;;;;;5012872;28;20179;-52
2022/12/22 16:07:33;;;;;;;10.20;1.27;;;11.00;99.90;;;;;;5012650;28;20170;-52
2022/12/22 16:09:59;;;;;;;8.90;1.70;;;11.00;99.90;;;;;;5012712;28;20187;-51
2022/12/22 16:12:25;;;;;;;7.77;1.93;;;11.10;99.90;;;;;;5010403;28;20179;-54
2022/12/22 16:14:55;;;;;;;10.57;1.87;;;11.40;99.90;;;;;;5006317;28;20332;-50
2022/12/22 16:17:24;;;;;;;5.83;1.30;;;11.00;99.90;;;;;;5012191;28;20244;-54
2022/12/22 16:19:50;;;;;;;9.50;1.53;;;10.80;99.90;;;;;;5004595;28;20245;-52
2022/12/22 16:22:37;;;;;;;10.47;2.00;;;13.60;99.90;;;;;;4992782;28;20638;-51
2022/12/22 16:25:06;;;;;;;7.70;1.63;;;10.90;99.90;;;;;;4996572;28;20241;-52
2022/12/22 16:27:33;;;;;;;11.27;1.70;;;10.90;99.90;;;;;;5010503;28;20194;-52
2022/12/22 16:29:59;;;;;;;4.10;1.40;;;11.00;99.90;;;;;;5007299;28;20172;-50
2022/12/22 16:32:28;;;;;;;10.50;1.40;;;10.70;99.90;;;;;;4992674;28;20665;-50
2022/12/22 16:35:14;;;;;;;5.20;2.00;;;10.80;99.90;;;;;;4992584;28;20684;-53
2022/12/22 16:37:40;;;;;;;10.80;1.97;;;10.80;99.90;;;;;;5010201;28;20218;-52
2022/12/22 16:40:07;;;;;;;6.33;2.70;;;10.90;99.90;;;;;;5011998;28;20258;-51
2022/12/22 16:42:33;;;;;;;16.00;8.43;;;11.10;99.90;;;;;;5003846;28;20187;-51
2022/12/22 16:44:58;;;;;;;5.00;1.40;;;10.90;99.90;;;;;;5010142;28;20193;-51
2022/12/22 16:47:30;;;;;;;6.37;1.80;;;10.90;99.90;;;;;;5011883;28;20509;-51
2022/12/22 16:49:55;;;;;;;14.67;5.83;;;10.80;99.90;;;;;;5011511;28;20222;-51
2022/12/22 16:52:28;;;;;;;67.83;34.90;;;11.00;99.90;;;;;;5011384;28;20526;-51
2022/12/22 16:54:53;;;;;;;7.53;2.60;;;10.90;99.90;;;;;;5011438;28;20186;-51
2022/12/22 16:57:19;;;;;;;31.97;15.70;;;;;;;;;;5011465;28;20578;-51
2022/12/22 16:59:45;;;;;;;16.27;2.47;;;10.80;99.90;;;;;;5011258;28;20546;-50
2022/12/22 17:02:25;;;;;;;14.37;8.10;;;10.60;99.90;;;;;;5011808;28;20190;-53
2022/12/22 17:04:53;;;;;;;3.43;2.13;;;10.90;99.90;;;;;;5011772;28;20257;-51
2022/12/22 17:07:19;;;;;;;5.20;1.67;;;10.90;99.90;;;;;;5010896;28;20183;-52
2022/12/22 17:09:51;;;;;;;5.53;2.67;;;10.90;99.90;;;;;;5002536;28;20202;-53
2022/12/22 17:12:24;;;;;;;9.43;2.30;;;10.90;99.90;;;;;;5009875;28;20585;-51
2022/12/22 17:14:51;;;;;;;10.87;2.70;;;10.70;99.90;;;;;;5011856;28;20273;-52
2022/12/22 17:17:21;;;;;;;4.57;2.20;;;10.80;99.90;;;;;;5011380;28;20202;-52
2022/12/22 17:19:48;;;;;;;6.17;2.50;;;10.80;99.90;;;;;;5011559;28;20223;-51
2022/12/22 17:22:26;;;;;;;11.90;2.50;;;11.20;99.90;;;;;;5011225;28;20179;-51